sensor_id;sensor_type;location;lat;lon;timestamp;P1;durP1;ratioP1;P2;durP2;ratioP2
79712;SDS011;69206;51.420;5.400;2023-04-23T00:02:00;74.57;;;33.37;;
79712;SDS011;69206;51.420;5.400;2023-04-23T00:04:26;69.43;;;32.63;;
79712;SDS011;69206;51.420;5.400;2023-04-23T00:06:52;66.80;;;33.57;;
79712;SDS011;69206;51.420;5.400;2023-04-23T00:09:19;67.43;;;33.70;;
79712;SDS011;69206;51.420;5.400;2023-04-23T00:11:46;73.40;;;33.40;;
79712;SDS011;69206;51.420;5.400;2023-04-23T00:14:12;77.20;;;34.47;;
79712;SDS011;69206;51.420;5.400;2023-04-23T00:16:38;69.33;;;32.77;;
79712;SDS011;69206;51.420;5.400;2023-04-23T00:19:05;72.47;;;32.30;;
79712;SDS011;69206;51.420;5.400;2023-04-23T00:21:30;73.27;;;34.57;;
79712;SDS011;69206;51.420;5.400;2023-04-23T00:23:56;75.23;;;35.20;;
79712;SDS011;69206;51.420;5.400;2023-04-23T00:26:21;80.20;;;36.77;;
79712;SDS011;69206;51.420;5.400;2023-04-23T00:28:46;79.23;;;38.03;;
79712;SDS011;69206;51.420;5.400;2023-04-23T00:31:12;81.27;;;39.53;;
79712;SDS011;69206;51.420;5.400;2023-04-23T00:33:37;84.20;;;38.93;;
79712;SDS011;69206;51.420;5.400;2023-04-23T00:36:03;85.80;;;39.07;;
79712;SDS011;69206;51.420;5.400;2023-04-23T00:38:28;86.33;;;39.63;;
79712;SDS011;69206;51.420;5.400;2023-04-23T00:40:53;82.40;;;37.73;;
79712;SDS011;69206;51.420;5.400;2023-04-23T00:43:19;83.77;;;38.43;;
79712;SDS011;69206;51.420;5.400;2023-04-23T00:45:44;83.47;;;40.00;;
79712;SDS011;69206;51.420;5.400;2023-04-23T00:48:11;88.03;;;39.43;;
79712;SDS011;69206;51.420;5.400;2023-04-23T00:50:36;86.53;;;37.67;;
79712;SDS011;69206;51.420;5.400;2023-04-23T00:53:02;81.57;;;38.40;;
79712;SDS011;69206;51.420;5.400;2023-04-23T00:55:27;80.63;;;37.17;;
79712;SDS011;69206;51.420;5.400;2023-04-23T00:57:53;87.10;;;36.80;;
79712;SDS011;69206;51.420;5.400;2023-04-23T01:00:19;76.73;;;37.13;;
79712;SDS011;69206;51.420;5.400;2023-04-23T01:02:45;78.30;;;36.87;;
79712;SDS011;69206;51.420;5.400;2023-04-23T01:05:13;77.17;;;38.03;;
79712;SDS011;69206;51.420;5.400;2023-04-23T01:07:42;86.97;;;37.63;;
79712;SDS011;69206;51.420;5.400;2023-04-23T01:10:10;79.23;;;38.63;;
79712;SDS011;69206;51.420;5.400;2023-04-23T01:12:36;88.20;;;38.50;;
79712;SDS011;69206;51.420;5.400;2023-04-23T01:15:01;82.40;;;37.30;;
79712;SDS011;69206;51.420;5.400;2023-04-23T01:17:28;76.93;;;35.97;;
79712;SDS011;69206;51.420;5.400;2023-04-23T01:19:54;73.93;;;36.53;;
79712;SDS011;69206;51.420;5.400;2023-04-23T01:22:19;67.23;;;31.97;;
79712;SDS011;69206;51.420;5.400;2023-04-23T01:24:45;72.00;;;34.87;;
79712;SDS011;69206;51.420;5.400;2023-04-23T01:27:11;70.20;;;33.13;;
79712;SDS011;69206;51.420;5.400;2023-04-23T01:29:37;67.67;;;31.93;;
79712;SDS011;69206;51.420;5.400;2023-04-23T01:32:03;68.33;;;33.27;;
79712;SDS011;69206;51.420;5.400;2023-04-23T01:34:29;68.27;;;32.80;;
79712;SDS011;69206;51.420;5.400;2023-04-23T01:36:56;68.20;;;32.50;;
79712;SDS011;69206;51.420;5.400;2023-04-23T01:39:23;74.93;;;34.60;;
79712;SDS011;69206;51.420;5.400;2023-04-23T01:41:48;63.47;;;32.30;;
79712;SDS011;69206;51.420;5.400;2023-04-23T01:44:14;71.33;;;34.00;;
79712;SDS011;69206;51.420;5.400;2023-04-23T01:46:40;68.07;;;31.67;;
79712;SDS011;69206;51.420;5.400;2023-04-23T01:49:06;68.77;;;32.77;;
79712;SDS011;69206;51.420;5.400;2023-04-23T01:51:32;61.70;;;32.13;;
79712;SDS011;69206;51.420;5.400;2023-04-23T01:53:57;65.57;;;32.40;;
79712;SDS011;69206;51.420;5.400;2023-04-23T01:56:24;62.30;;;30.77;;
79712;SDS011;69206;51.420;5.400;2023-04-23T01:58:51;67.20;;;32.30;;
79712;SDS011;69206;51.420;5.400;2023-04-23T02:01:16;63.57;;;31.67;;
79712;SDS011;69206;51.420;5.400;2023-04-23T02:03:41;65.40;;;31.77;;
79712;SDS011;69206;51.420;5.400;2023-04-23T02:06:07;73.33;;;33.77;;
79712;SDS011;69206;51.420;5.400;2023-04-23T02:08:34;65.90;;;31.97;;
79712;SDS011;69206;51.420;5.400;2023-04-23T02:10:59;60.77;;;32.30;;
79712;SDS011;69206;51.420;5.400;2023-04-23T02:13:25;66.67;;;32.57;;
79712;SDS011;69206;51.420;5.400;2023-04-23T02:15:50;63.30;;;33.47;;
79712;SDS011;69206;51.420;5.400;2023-04-23T02:18:15;61.77;;;33.00;;
79712;SDS011;69206;51.420;5.400;2023-04-23T02:20:41;61.47;;;30.33;;
79712;SDS011;69206;51.420;5.400;2023-04-23T02:23:06;64.70;;;31.47;;
79712;SDS011;69206;51.420;5.400;2023-04-23T02:25:33;62.00;;;31.30;;
79712;SDS011;69206;51.420;5.400;2023-04-23T02:27:58;61.93;;;31.60;;
79712;SDS011;69206;51.420;5.400;2023-04-23T02:30:25;66.73;;;32.43;;
79712;SDS011;69206;51.420;5.400;2023-04-23T02:32:51;60.10;;;30.87;;
79712;SDS011;69206;51.420;5.400;2023-04-23T02:35:17;56.10;;;29.83;;
79712;SDS011;69206;51.420;5.400;2023-04-23T02:37:42;64.20;;;31.47;;
79712;SDS011;69206;51.420;5.400;2023-04-23T02:40:08;61.67;;;30.47;;
79712;SDS011;69206;51.420;5.400;2023-04-23T02:42:34;63.67;;;31.20;;
79712;SDS011;69206;51.420;5.400;2023-04-23T02:44:59;55.60;;;28.43;;
79712;SDS011;69206;51.420;5.400;2023-04-23T02:47:24;58.17;;;31.30;;
79712;SDS011;69206;51.420;5.400;2023-04-23T02:49:50;62.30;;;30.93;;
79712;SDS011;69206;51.420;5.400;2023-04-23T02:52:15;61.03;;;30.77;;
79712;SDS011;69206;51.420;5.400;2023-04-23T02:54:41;58.80;;;29.43;;
79712;SDS011;69206;51.420;5.400;2023-04-23T02:57:06;59.13;;;31.13;;
79712;SDS011;69206;51.420;5.400;2023-04-23T02:59:32;54.20;;;28.87;;
79712;SDS011;69206;51.420;5.400;2023-04-23T03:01:57;62.50;;;31.60;;
79712;SDS011;69206;51.420;5.400;2023-04-23T03:04:23;59.53;;;29.87;;
79712;SDS011;69206;51.420;5.400;2023-04-23T03:06:48;55.53;;;28.37;;
79712;SDS011;69206;51.420;5.400;2023-04-23T03:09:14;59.03;;;29.53;;
79712;SDS011;69206;51.420;5.400;2023-04-23T03:11:40;60.03;;;30.00;;
79712;SDS011;69206;51.420;5.400;2023-04-23T03:14:05;56.80;;;29.57;;
79712;SDS011;69206;51.420;5.400;2023-04-23T03:16:30;61.53;;;30.03;;
79712;SDS011;69206;51.420;5.400;2023-04-23T03:18:56;62.07;;;29.80;;
79712;SDS011;69206;51.420;5.400;2023-04-23T03:21:23;56.10;;;28.83;;
79712;SDS011;69206;51.420;5.400;2023-04-23T03:23:48;55.63;;;28.97;;
79712;SDS011;69206;51.420;5.400;2023-04-23T03:26:13;59.83;;;30.03;;
79712;SDS011;69206;51.420;5.400;2023-04-23T03:28:39;54.83;;;28.70;;
79712;SDS011;69206;51.420;5.400;2023-04-23T03:31:04;64.73;;;30.27;;
79712;SDS011;69206;51.420;5.400;2023-04-23T03:33:30;53.60;;;29.00;;
79712;SDS011;69206;51.420;5.400;2023-04-23T03:35:55;58.93;;;28.93;;
79712;SDS011;69206;51.420;5.400;2023-04-23T03:38:20;61.53;;;30.07;;
79712;SDS011;69206;51.420;5.400;2023-04-23T03:40:46;54.53;;;28.73;;
79712;SDS011;69206;51.420;5.400;2023-04-23T03:43:11;53.43;;;26.97;;
79712;SDS011;69206;51.420;5.400;2023-04-23T03:45:37;53.33;;;29.50;;
79712;SDS011;69206;51.420;5.400;2023-04-23T03:48:02;51.13;;;27.27;;
79712;SDS011;69206;51.420;5.400;2023-04-23T03:50:28;50.37;;;27.57;;
79712;SDS011;69206;51.420;5.400;2023-04-23T03:52:53;52.00;;;27.50;;
79712;SDS011;69206;51.420;5.400;2023-04-23T03:55:19;51.80;;;27.90;;
79712;SDS011;69206;51.420;5.400;2023-04-23T03:57:45;49.97;;;27.17;;
79712;SDS011;69206;51.420;5.400;2023-04-23T04:00:10;54.07;;;28.43;;
79712;SDS011;69206;51.420;5.400;2023-04-23T04:02:37;50.53;;;26.60;;
79712;SDS011;69206;51.420;5.400;2023-04-23T04:05:03;46.70;;;26.27;;
79712;SDS011;69206;51.420;5.400;2023-04-23T04:07:33;48.07;;;26.57;;
79712;SDS011;69206;51.420;5.400;2023-04-23T04:09:59;44.60;;;26.20;;
79712;SDS011;69206;51.420;5.400;2023-04-23T04:12:27;48.23;;;26.17;;
79712;SDS011;69206;51.420;5.400;2023-04-23T04:14:53;46.53;;;25.53;;
79712;SDS011;69206;51.420;5.400;2023-04-23T04:17:18;46.70;;;26.40;;
79712;SDS011;69206;51.420;5.400;2023-04-23T04:19:43;43.60;;;24.93;;
79712;SDS011;69206;51.420;5.400;2023-04-23T04:22:09;46.13;;;24.93;;
79712;SDS011;69206;51.420;5.400;2023-04-23T04:24:34;51.67;;;26.73;;
79712;SDS011;69206;51.420;5.400;2023-04-23T04:27:00;46.47;;;26.73;;
79712;SDS011;69206;51.420;5.400;2023-04-23T04:29:26;52.73;;;27.00;;
79712;SDS011;69206;51.420;5.400;2023-04-23T04:31:53;48.77;;;25.37;;
79712;SDS011;69206;51.420;5.400;2023-04-23T04:34:18;48.27;;;25.00;;
79712;SDS011;69206;51.420;5.400;2023-04-23T04:36:44;47.70;;;23.93;;
79712;SDS011;69206;51.420;5.400;2023-04-23T04:39:10;44.37;;;24.17;;
79712;SDS011;69206;51.420;5.400;2023-04-23T04:41:36;46.97;;;24.93;;
79712;SDS011;69206;51.420;5.400;2023-04-23T04:44:02;49.73;;;25.97;;
79712;SDS011;69206;51.420;5.400;2023-04-23T04:46:27;47.23;;;24.30;;
79712;SDS011;69206;51.420;5.400;2023-04-23T04:48:53;47.83;;;25.30;;
79712;SDS011;69206;51.420;5.400;2023-04-23T04:51:19;47.97;;;25.63;;
79712;SDS011;69206;51.420;5.400;2023-04-23T04:53:44;45.93;;;24.27;;
79712;SDS011;69206;51.420;5.400;2023-04-23T04:56:10;46.80;;;24.67;;
79712;SDS011;69206;51.420;5.400;2023-04-23T04:58:35;48.43;;;25.13;;
79712;SDS011;69206;51.420;5.400;2023-04-23T05:01:00;52.23;;;25.23;;
79712;SDS011;69206;51.420;5.400;2023-04-23T05:03:26;45.13;;;25.00;;
79712;SDS011;69206;51.420;5.400;2023-04-23T05:05:52;43.57;;;23.63;;
79712;SDS011;69206;51.420;5.400;2023-04-23T05:08:20;45.33;;;25.17;;
79712;SDS011;69206;51.420;5.400;2023-04-23T05:10:46;47.30;;;25.33;;
79712;SDS011;69206;51.420;5.400;2023-04-23T05:13:14;53.70;;;23.93;;
79712;SDS011;69206;51.420;5.400;2023-04-23T05:15:40;48.60;;;24.97;;
79712;SDS011;69206;51.420;5.400;2023-04-23T05:18:05;43.97;;;24.63;;
79712;SDS011;69206;51.420;5.400;2023-04-23T05:20:31;44.37;;;25.07;;
79712;SDS011;69206;51.420;5.400;2023-04-23T05:22:57;44.37;;;24.50;;
79712;SDS011;69206;51.420;5.400;2023-04-23T05:25:27;44.33;;;24.20;;
79712;SDS011;69206;51.420;5.400;2023-04-23T05:27:53;43.53;;;24.03;;
79712;SDS011;69206;51.420;5.400;2023-04-23T05:30:19;40.87;;;22.77;;
79712;SDS011;69206;51.420;5.400;2023-04-23T05:32:44;43.00;;;22.63;;
79712;SDS011;69206;51.420;5.400;2023-04-23T05:35:10;41.97;;;23.53;;
79712;SDS011;69206;51.420;5.400;2023-04-23T05:37:35;38.27;;;21.90;;
79712;SDS011;69206;51.420;5.400;2023-04-23T05:40:01;40.43;;;22.17;;
79712;SDS011;69206;51.420;5.400;2023-04-23T05:42:27;38.53;;;22.37;;
79712;SDS011;69206;51.420;5.400;2023-04-23T05:44:52;36.30;;;22.13;;
79712;SDS011;69206;51.420;5.400;2023-04-23T05:47:18;37.93;;;22.13;;
79712;SDS011;69206;51.420;5.400;2023-04-23T05:49:43;38.77;;;21.90;;
79712;SDS011;69206;51.420;5.400;2023-04-23T05:52:09;37.87;;;20.97;;
79712;SDS011;69206;51.420;5.400;2023-04-23T05:54:35;40.70;;;23.50;;
79712;SDS011;69206;51.420;5.400;2023-04-23T05:57:01;36.23;;;20.77;;
79712;SDS011;69206;51.420;5.400;2023-04-23T05:59:26;40.40;;;23.30;;
79712;SDS011;69206;51.420;5.400;2023-04-23T06:01:52;42.57;;;25.37;;
79712;SDS011;69206;51.420;5.400;2023-04-23T06:04:17;34.00;;;21.92;;
79712;SDS011;69206;51.420;5.400;2023-04-23T06:06:43;31.88;;;19.70;;
79712;SDS011;69206;51.420;5.400;2023-04-23T06:09:08;24.92;;;15.73;;
79712;SDS011;69206;51.420;5.400;2023-04-23T06:11:34;25.17;;;15.05;;
79712;SDS011;69206;51.420;5.400;2023-04-23T06:14:02;21.65;;;14.20;;
79712;SDS011;69206;51.420;5.400;2023-04-23T06:16:28;26.35;;;15.13;;
79712;SDS011;69206;51.420;5.400;2023-04-23T06:18:53;21.63;;;12.75;;
79712;SDS011;69206;51.420;5.400;2023-04-23T06:21:20;20.73;;;13.98;;
79712;SDS011;69206;51.420;5.400;2023-04-23T06:23:46;20.77;;;13.48;;
79712;SDS011;69206;51.420;5.400;2023-04-23T06:26:12;18.95;;;12.88;;
79712;SDS011;69206;51.420;5.400;2023-04-23T06:28:38;20.52;;;13.07;;
79712;SDS011;69206;51.420;5.400;2023-04-23T06:31:04;19.13;;;12.48;;
79712;SDS011;69206;51.420;5.400;2023-04-23T06:33:31;16.63;;;11.85;;
79712;SDS011;69206;51.420;5.400;2023-04-23T06:35:58;15.93;;;11.07;;
79712;SDS011;69206;51.420;5.400;2023-04-23T06:38:23;18.95;;;11.45;;
79712;SDS011;69206;51.420;5.400;2023-04-23T06:40:49;20.42;;;11.10;;
79712;SDS011;69206;51.420;5.400;2023-04-23T06:43:14;14.18;;;10.35;;
79712;SDS011;69206;51.420;5.400;2023-04-23T06:45:39;19.65;;;11.10;;
79712;SDS011;69206;51.420;5.400;2023-04-23T06:48:05;14.57;;;9.88;;
79712;SDS011;69206;51.420;5.400;2023-04-23T06:50:30;13.27;;;9.00;;
79712;SDS011;69206;51.420;5.400;2023-04-23T06:52:56;18.25;;;9.27;;
79712;SDS011;69206;51.420;5.400;2023-04-23T06:55:21;15.35;;;9.70;;
79712;SDS011;69206;51.420;5.400;2023-04-23T06:57:50;13.75;;;8.38;;
79712;SDS011;69206;51.420;5.400;2023-04-23T07:00:17;12.35;;;8.02;;
79712;SDS011;69206;51.420;5.400;2023-04-23T07:02:43;12.02;;;8.25;;
79712;SDS011;69206;51.420;5.400;2023-04-23T07:05:08;12.93;;;8.35;;
79712;SDS011;69206;51.420;5.400;2023-04-23T07:07:34;11.57;;;7.53;;
79712;SDS011;69206;51.420;5.400;2023-04-23T07:10:01;19.13;;;7.93;;
79712;SDS011;69206;51.420;5.400;2023-04-23T07:12:27;11.40;;;6.68;;
79712;SDS011;69206;51.420;5.400;2023-04-23T07:14:53;13.20;;;7.03;;
79712;SDS011;69206;51.420;5.400;2023-04-23T07:17:18;12.35;;;6.90;;
79712;SDS011;69206;51.420;5.400;2023-04-23T07:19:44;16.13;;;6.97;;
79712;SDS011;69206;51.420;5.400;2023-04-23T07:22:09;11.75;;;6.45;;
79712;SDS011;69206;51.420;5.400;2023-04-23T07:24:35;11.20;;;6.30;;
79712;SDS011;69206;51.420;5.400;2023-04-23T07:27:00;10.38;;;5.70;;
79712;SDS011;69206;51.420;5.400;2023-04-23T07:29:27;12.77;;;5.75;;
79712;SDS011;69206;51.420;5.400;2023-04-23T07:31:53;12.95;;;6.05;;
79712;SDS011;69206;51.420;5.400;2023-04-23T07:34:18;7.25;;;5.28;;
79712;SDS011;69206;51.420;5.400;2023-04-23T07:36:43;9.32;;;5.18;;
79712;SDS011;69206;51.420;5.400;2023-04-23T07:39:09;12.40;;;4.47;;
79712;SDS011;69206;51.420;5.400;2023-04-23T07:41:35;8.73;;;4.00;;
79712;SDS011;69206;51.420;5.400;2023-04-23T07:44:00;10.85;;;4.68;;
79712;SDS011;69206;51.420;5.400;2023-04-23T07:46:26;12.55;;;4.20;;
79712;SDS011;69206;51.420;5.400;2023-04-23T07:48:51;7.65;;;4.13;;
79712;SDS011;69206;51.420;5.400;2023-04-23T07:51:17;7.78;;;4.22;;
79712;SDS011;69206;51.420;5.400;2023-04-23T07:53:42;10.45;;;4.22;;
79712;SDS011;69206;51.420;5.400;2023-04-23T07:56:08;11.25;;;4.28;;
79712;SDS011;69206;51.420;5.400;2023-04-23T07:58:34;12.88;;;3.97;;
79712;SDS011;69206;51.420;5.400;2023-04-23T08:01:00;7.35;;;3.58;;
79712;SDS011;69206;51.420;5.400;2023-04-23T08:03:27;8.95;;;3.60;;
79712;SDS011;69206;51.420;5.400;2023-04-23T08:05:52;7.38;;;3.33;;
79712;SDS011;69206;51.420;5.400;2023-04-23T08:08:18;6.32;;;2.72;;
79712;SDS011;69206;51.420;5.400;2023-04-23T08:10:44;11.85;;;3.45;;
79712;SDS011;69206;51.420;5.400;2023-04-23T08:13:09;9.15;;;3.00;;
79712;SDS011;69206;51.420;5.400;2023-04-23T08:15:35;8.77;;;3.08;;
79712;SDS011;69206;51.420;5.400;2023-04-23T08:18:01;6.97;;;2.45;;
79712;SDS011;69206;51.420;5.400;2023-04-23T08:20:27;10.45;;;3.22;;
79712;SDS011;69206;51.420;5.400;2023-04-23T08:22:53;6.65;;;2.40;;
79712;SDS011;69206;51.420;5.400;2023-04-23T08:25:19;7.80;;;2.80;;
79712;SDS011;69206;51.420;5.400;2023-04-23T08:27:45;6.78;;;2.35;;
79712;SDS011;69206;51.420;5.400;2023-04-23T08:30:10;6.82;;;2.58;;
79712;SDS011;69206;51.420;5.400;2023-04-23T08:32:37;8.98;;;2.70;;
79712;SDS011;69206;51.420;5.400;2023-04-23T08:35:03;11.02;;;2.78;;
79712;SDS011;69206;51.420;5.400;2023-04-23T08:37:28;7.80;;;2.58;;
79712;SDS011;69206;51.420;5.400;2023-04-23T08:39:54;8.27;;;2.38;;
79712;SDS011;69206;51.420;5.400;2023-04-23T08:42:22;9.38;;;2.25;;
79712;SDS011;69206;51.420;5.400;2023-04-23T08:44:53;11.20;;;2.72;;
79712;SDS011;69206;51.420;5.400;2023-04-23T08:47:19;10.13;;;2.42;;
79712;SDS011;69206;51.420;5.400;2023-04-23T08:49:48;9.77;;;2.00;;
79712;SDS011;69206;51.420;5.400;2023-04-23T08:52:19;8.88;;;2.40;;
79712;SDS011;69206;51.420;5.400;2023-04-23T08:54:48;12.70;;;2.45;;
79712;SDS011;69206;51.420;5.400;2023-04-23T08:57:17;10.07;;;2.28;;
79712;SDS011;69206;51.420;5.400;2023-04-23T08:59:43;11.70;;;2.75;;
79712;SDS011;69206;51.420;5.400;2023-04-23T09:02:10;8.45;;;2.10;;
79712;SDS011;69206;51.420;5.400;2023-04-23T09:04:35;4.72;;;1.77;;
79712;SDS011;69206;51.420;5.400;2023-04-23T09:07:02;11.88;;;2.33;;
79712;SDS011;69206;51.420;5.400;2023-04-23T09:09:28;12.35;;;2.10;;
79712;SDS011;69206;51.420;5.400;2023-04-23T09:11:55;7.97;;;2.00;;
79712;SDS011;69206;51.420;5.400;2023-04-23T09:14:23;5.50;;;1.95;;
79712;SDS011;69206;51.420;5.400;2023-04-23T09:16:50;9.43;;;1.95;;
79712;SDS011;69206;51.420;5.400;2023-04-23T09:19:16;5.03;;;1.60;;
79712;SDS011;69206;51.420;5.400;2023-04-23T09:21:42;12.15;;;2.00;;
79712;SDS011;69206;51.420;5.400;2023-04-23T09:24:09;7.88;;;2.03;;
79712;SDS011;69206;51.420;5.400;2023-04-23T09:26:45;8.15;;;2.00;;
79712;SDS011;69206;51.420;5.400;2023-04-23T09:29:19;5.82;;;1.80;;
79712;SDS011;69206;51.420;5.400;2023-04-23T09:31:47;5.05;;;1.70;;
79712;SDS011;69206;51.420;5.400;2023-04-23T09:34:15;6.03;;;1.73;;
79712;SDS011;69206;51.420;5.400;2023-04-23T09:36:42;5.93;;;1.40;;
79712;SDS011;69206;51.420;5.400;2023-04-23T09:39:16;8.23;;;1.63;;
79712;SDS011;69206;51.420;5.400;2023-04-23T09:41:43;12.18;;;2.10;;
79712;SDS011;69206;51.420;5.400;2023-04-23T09:44:10;5.57;;;1.63;;
79712;SDS011;69206;51.420;5.400;2023-04-23T09:49:07;8.32;;;1.73;;
79712;SDS011;69206;51.420;5.400;2023-04-23T09:51:38;7.95;;;1.58;;
79712;SDS011;69206;51.420;5.400;2023-04-23T09:54:09;13.38;;;2.00;;
79712;SDS011;69206;51.420;5.400;2023-04-23T09:56:36;6.95;;;1.65;;
79712;SDS011;69206;51.420;5.400;2023-04-23T09:59:01;11.55;;;2.30;;
79712;SDS011;69206;51.420;5.400;2023-04-23T10:01:27;5.30;;;1.63;;
79712;SDS011;69206;51.420;5.400;2023-04-23T10:03:53;6.82;;;1.70;;
79712;SDS011;69206;51.420;5.400;2023-04-23T10:06:25;6.38;;;1.75;;
79712;SDS011;69206;51.420;5.400;2023-04-23T10:08:54;8.27;;;1.65;;
79712;SDS011;69206;51.420;5.400;2023-04-23T10:11:21;5.10;;;2.10;;
79712;SDS011;69206;51.420;5.400;2023-04-23T10:13:48;6.28;;;1.92;;
79712;SDS011;69206;51.420;5.400;2023-04-23T10:16:15;9.25;;;2.05;;
79712;SDS011;69206;51.420;5.400;2023-04-23T10:18:41;5.75;;;1.83;;
79712;SDS011;69206;51.420;5.400;2023-04-23T10:21:07;6.97;;;2.13;;
79712;SDS011;69206;51.420;5.400;2023-04-23T10:23:32;5.82;;;1.83;;
79712;SDS011;69206;51.420;5.400;2023-04-23T10:26:00;4.78;;;1.60;;
79712;SDS011;69206;51.420;5.400;2023-04-23T10:28:29;6.07;;;1.83;;
79712;SDS011;69206;51.420;5.400;2023-04-23T10:30:57;7.78;;;1.70;;
79712;SDS011;69206;51.420;5.400;2023-04-23T10:33:23;6.78;;;2.20;;
79712;SDS011;69206;51.420;5.400;2023-04-23T10:35:50;8.25;;;2.13;;
79712;SDS011;69206;51.420;5.400;2023-04-23T10:38:17;6.00;;;1.55;;
79712;SDS011;69206;51.420;5.400;2023-04-23T10:40:44;4.60;;;1.27;;
79712;SDS011;69206;51.420;5.400;2023-04-23T10:43:13;6.20;;;1.60;;
79712;SDS011;69206;51.420;5.400;2023-04-23T10:45:38;6.38;;;1.63;;
79712;SDS011;69206;51.420;5.400;2023-04-23T10:48:04;5.32;;;1.48;;
79712;SDS011;69206;51.420;5.400;2023-04-23T10:50:33;5.65;;;1.48;;
79712;SDS011;69206;51.420;5.400;2023-04-23T10:53:00;8.23;;;1.65;;
79712;SDS011;69206;51.420;5.400;2023-04-23T10:55:27;5.03;;;1.70;;
79712;SDS011;69206;51.420;5.400;2023-04-23T10:57:54;7.15;;;2.50;;
79712;SDS011;69206;51.420;5.400;2023-04-23T11:00:21;7.85;;;1.60;;
79712;SDS011;69206;51.420;5.400;2023-04-23T11:02:47;5.47;;;1.40;;
79712;SDS011;69206;51.420;5.400;2023-04-23T11:05:14;7.55;;;1.70;;
79712;SDS011;69206;51.420;5.400;2023-04-23T11:07:41;5.78;;;2.00;;
79712;SDS011;69206;51.420;5.400;2023-04-23T11:10:10;3.97;;;1.70;;
79712;SDS011;69206;51.420;5.400;2023-04-23T11:12:37;8.38;;;2.13;;
79712;SDS011;69206;51.420;5.400;2023-04-23T11:15:13;4.18;;;1.55;;
79712;SDS011;69206;51.420;5.400;2023-04-23T11:25:13;5.90;;;1.73;;
79712;SDS011;69206;51.420;5.400;2023-04-23T11:27:42;9.48;;;1.65;;
79712;SDS011;69206;51.420;5.400;2023-04-23T11:30:29;5.82;;;1.55;;
79712;SDS011;69206;51.420;5.400;2023-04-23T11:32:55;4.30;;;1.45;;
79712;SDS011;69206;51.420;5.400;2023-04-23T11:35:22;8.25;;;1.80;;
79712;SDS011;69206;51.420;5.400;2023-04-23T11:37:52;5.13;;;1.50;;
79712;SDS011;69206;51.420;5.400;2023-04-23T11:40:18;6.18;;;1.63;;
79712;SDS011;69206;51.420;5.400;2023-04-23T11:42:47;7.43;;;1.33;;
79712;SDS011;69206;51.420;5.400;2023-04-23T11:47:46;4.78;;;1.60;;
79712;SDS011;69206;51.420;5.400;2023-04-23T11:50:17;8.55;;;1.50;;
79712;SDS011;69206;51.420;5.400;2023-04-23T11:52:49;4.47;;;1.50;;
79712;SDS011;69206;51.420;5.400;2023-04-23T11:55:15;5.75;;;1.30;;
79712;SDS011;69206;51.420;5.400;2023-04-23T11:57:48;4.03;;;1.20;;
79712;SDS011;69206;51.420;5.400;2023-04-23T12:00:15;10.02;;;2.33;;
79712;SDS011;69206;51.420;5.400;2023-04-23T12:02:49;9.18;;;1.50;;
79712;SDS011;69206;51.420;5.400;2023-04-23T12:05:19;8.02;;;1.50;;
79712;SDS011;69206;51.420;5.400;2023-04-23T12:07:51;11.80;;;2.00;;
79712;SDS011;69206;51.420;5.400;2023-04-23T12:10:20;4.80;;;1.63;;
79712;SDS011;69206;51.420;5.400;2023-04-23T12:12:53;4.15;;;1.65;;
79712;SDS011;69206;51.420;5.400;2023-04-23T12:15:18;7.43;;;1.83;;
79712;SDS011;69206;51.420;5.400;2023-04-23T12:17:47;6.65;;;2.03;;
79712;SDS011;69206;51.420;5.400;2023-04-23T12:20:18;4.40;;;1.23;;
79712;SDS011;69206;51.420;5.400;2023-04-23T12:22:45;5.15;;;1.50;;
79712;SDS011;69206;51.420;5.400;2023-04-23T12:25:11;5.18;;;1.20;;
79712;SDS011;69206;51.420;5.400;2023-04-23T12:27:40;4.82;;;1.30;;
79712;SDS011;69206;51.420;5.400;2023-04-23T12:30:08;4.63;;;1.60;;
79712;SDS011;69206;51.420;5.400;2023-04-23T12:32:34;6.53;;;1.67;;
79712;SDS011;69206;51.420;5.400;2023-04-23T12:34:59;7.18;;;1.40;;
79712;SDS011;69206;51.420;5.400;2023-04-23T12:37:28;5.13;;;1.35;;
79712;SDS011;69206;51.420;5.400;2023-04-23T12:39:55;5.25;;;1.15;;
79712;SDS011;69206;51.420;5.400;2023-04-23T12:42:23;2.53;;;1.42;;
79712;SDS011;69206;51.420;5.400;2023-04-23T12:44:49;11.40;;;1.98;;
79712;SDS011;69206;51.420;5.400;2023-04-23T12:47:15;3.65;;;1.25;;
79712;SDS011;69206;51.420;5.400;2023-04-23T12:49:43;6.53;;;1.15;;
79712;SDS011;69206;51.420;5.400;2023-04-23T12:52:09;5.53;;;1.15;;
79712;SDS011;69206;51.420;5.400;2023-04-23T12:54:36;4.93;;;1.40;;
79712;SDS011;69206;51.420;5.400;2023-04-23T12:57:03;6.25;;;1.20;;
79712;SDS011;69206;51.420;5.400;2023-04-23T12:59:33;7.03;;;1.30;;
79712;SDS011;69206;51.420;5.400;2023-04-23T13:01:59;7.78;;;1.35;;
79712;SDS011;69206;51.420;5.400;2023-04-23T13:04:28;5.72;;;1.10;;
79712;SDS011;69206;51.420;5.400;2023-04-23T13:06:54;7.78;;;1.85;;
79712;SDS011;69206;51.420;5.400;2023-04-23T13:09:19;8.88;;;1.65;;
79712;SDS011;69206;51.420;5.400;2023-04-23T13:11:45;5.55;;;1.40;;
79712;SDS011;69206;51.420;5.400;2023-04-23T13:14:13;6.57;;;1.42;;
79712;SDS011;69206;51.420;5.400;2023-04-23T13:16:39;6.10;;;1.45;;
79712;SDS011;69206;51.420;5.400;2023-04-23T13:19:08;8.18;;;1.33;;
79712;SDS011;69206;51.420;5.400;2023-04-23T13:21:34;9.48;;;1.40;;
79712;SDS011;69206;51.420;5.400;2023-04-23T13:23:59;10.82;;;1.45;;
79712;SDS011;69206;51.420;5.400;2023-04-23T13:26:25;5.03;;;1.02;;
79712;SDS011;69206;51.420;5.400;2023-04-23T13:28:55;2.97;;;1.13;;
79712;SDS011;69206;51.420;5.400;2023-04-23T13:31:21;4.13;;;1.40;;
79712;SDS011;69206;51.420;5.400;2023-04-23T13:33:46;9.85;;;1.50;;
79712;SDS011;69206;51.420;5.400;2023-04-23T13:36:12;5.70;;;1.10;;
79712;SDS011;69206;51.420;5.400;2023-04-23T13:38:37;6.90;;;1.50;;
79712;SDS011;69206;51.420;5.400;2023-04-23T13:41:02;8.48;;;1.50;;
79712;SDS011;69206;51.420;5.400;2023-04-23T13:43:28;3.88;;;1.35;;
79712;SDS011;69206;51.420;5.400;2023-04-23T13:45:54;5.57;;;1.38;;
79712;SDS011;69206;51.420;5.400;2023-04-23T13:48:19;4.88;;;1.33;;
79712;SDS011;69206;51.420;5.400;2023-04-23T13:50:45;8.85;;;1.45;;
79712;SDS011;69206;51.420;5.400;2023-04-23T13:53:10;4.80;;;1.50;;
79712;SDS011;69206;51.420;5.400;2023-04-23T13:55:37;5.22;;;1.70;;
79712;SDS011;69206;51.420;5.400;2023-04-23T13:58:03;3.65;;;1.27;;
79712;SDS011;69206;51.420;5.400;2023-04-23T14:00:30;6.97;;;1.45;;
79712;SDS011;69206;51.420;5.400;2023-04-23T14:02:56;4.50;;;1.75;;
79712;SDS011;69206;51.420;5.400;2023-04-23T14:05:21;8.93;;;1.67;;
79712;SDS011;69206;51.420;5.400;2023-04-23T14:07:47;4.10;;;1.63;;
79712;SDS011;69206;51.420;5.400;2023-04-23T14:10:12;5.78;;;1.60;;
79712;SDS011;69206;51.420;5.400;2023-04-23T14:12:39;14.75;;;2.28;;
79712;SDS011;69206;51.420;5.400;2023-04-23T14:15:05;7.35;;;2.20;;
79712;SDS011;69206;51.420;5.400;2023-04-23T14:17:31;3.30;;;1.80;;
79712;SDS011;69206;51.420;5.400;2023-04-23T14:19:56;8.18;;;1.95;;
79712;SDS011;69206;51.420;5.400;2023-04-23T14:22:22;6.22;;;1.98;;
79712;SDS011;69206;51.420;5.400;2023-04-23T14:24:53;11.75;;;2.25;;
79712;SDS011;69206;51.420;5.400;2023-04-23T14:27:21;1.35;;;0.57;;
79712;SDS011;69206;51.420;5.400;2023-04-23T14:29:51;0.40;;;0.40;;
79712;SDS011;69206;51.420;5.400;2023-04-23T14:32:21;0.55;;;0.47;;
79712;SDS011;69206;51.420;5.400;2023-04-23T14:34:46;0.10;;;0.10;;
79712;SDS011;69206;51.420;5.400;2023-04-23T14:37:12;0.65;;;0.28;;
79712;SDS011;69206;51.420;5.400;2023-04-23T14:39:37;0.38;;;0.20;;
79712;SDS011;69206;51.420;5.400;2023-04-23T14:42:03;1.02;;;0.93;;